PWSweather.com
Personal Weather Stations
Station Observations
GEELONGWX1
Bell Post Hill, GeelongAU

Bell Post HillGeelongAU

Lat: -38.101, Lon: 144.326

Elevation: 204

Station Type: Davis Vantage Pro2

http://www.geelongweather.com

High Low Average
Temperature 58.0°F14.4°F 50.3°F10.2°F 54.6°F12.6°F
Dew Point 53.2°F11.8°F 44.2°F6.8°F 48.9°F9.4°F
Winds 9.2 mph NNW14.8 mph NNW Calm Calm 3.4 mph 5.5 mph
Wind Gusts 15.0 mph24.1 mph -- 5.7 mph9.2 mph
Humidity 86% 73% 81%
Pressure 30.24 in1024.00 in 29.97 in1014.90 in -
Precipitation 0.11 in2.80 in - -
Hour Temp Dew Point Humidity Winds Wind Gusts Pressure Precip Precip Rate Daily Precip Total
12:00 AM 52.3°F11.3°C 44.6°F7.0°C 75% 2.3 mph NNW3.7 kmh NNW 3.5 mph5.6 kmh 30.24 in1024.0 mb - 0.00 in0.0 mm 0.00 in0.0 mm
12:10 AM 52.1°F11.2°C 44.4°F6.9°C 75% 2.3 mph NNW3.7 kmh NNW 4.6 mph7.4 kmh 30.23 in1023.7 mb - 0.00 in0.0 mm 0.00 in0.0 mm
12:20 AM 51.9°F11.1°C 44.6°F7.0°C 76% 2.3 mph NNW3.7 kmh NNW 4.6 mph7.4 kmh 30.24 in1024.0 mb - 0.00 in0.0 mm 0.00 in0.0 mm
12:30 AM 51.7°F10.9°C 44.4°F6.9°C 76% 2.3 mph NNW3.7 kmh NNW 3.5 mph5.6 kmh 30.23 in1023.7 mb - 0.00 in0.0 mm 0.00 in0.0 mm
12:40 AM 51.6°F10.9°C 44.6°F7.0°C 77% 1.2 mph NNW1.9 kmh NNW 4.6 mph7.4 kmh 30.23 in1023.7 mb - 0.00 in0.0 mm 0.00 in0.0 mm
12:50 AM 51.5°F10.8°C 44.5°F6.9°C 77% 1.2 mph NNW1.9 kmh NNW 1.2 mph1.9 kmh 30.23 in1023.7 mb - 0.00 in0.0 mm 0.00 in0.0 mm
01:00 AM 51.3°F10.7°C 44.3°F6.8°C 77% 2.3 mph NNW3.7 kmh NNW 2.3 mph3.7 kmh 30.23 in1023.7 mb - 0.00 in0.0 mm 0.00 in0.0 mm
01:10 AM 51.2°F10.7°C 44.2°F6.8°C 77% 2.3 mph NNW3.7 kmh NNW 5.8 mph9.3 kmh 30.23 in1023.7 mb - 0.00 in0.0 mm 0.00 in0.0 mm
01:20 AM 51.1°F10.6°C 44.5°F6.9°C 78% 2.3 mph N3.7 kmh N 3.5 mph5.6 kmh 30.23 in1023.7 mb - 0.00 in0.0 mm 0.00 in0.0 mm
01:30 AM 51.1°F10.6°C 44.5°F6.9°C 78% 2.3 mph NNW3.7 kmh NNW 3.5 mph5.6 kmh 30.22 in1023.4 mb - 0.00 in0.0 mm 0.00 in0.0 mm
01:40 AM 50.9°F10.5°C 44.3°F6.8°C 78% Calm Calm -- 30.22 in1023.4 mb - 0.00 in0.0 mm 0.00 in0.0 mm
01:50 AM 50.8°F10.4°C 44.5°F6.9°C 79% Calm Calm -- 30.22 in1023.4 mb - 0.00 in0.0 mm 0.00 in0.0 mm
02:00 AM 50.7°F10.4°C 44.4°F6.9°C 79% 1.2 mph N1.9 kmh N 3.5 mph5.6 kmh 30.22 in1023.4 mb - 0.00 in0.0 mm 0.00 in0.0 mm
02:10 AM 50.5°F10.3°C 44.3°F6.8°C 79% 1.2 mph N1.9 kmh N 3.5 mph5.6 kmh 30.21 in1023.0 mb - 0.00 in0.0 mm 0.00 in0.0 mm
02:20 AM 50.4°F10.2°C 44.5°F6.9°C 80% 3.5 mph NNW5.6 kmh NNW 3.5 mph5.6 kmh 30.21 in1023.0 mb - 0.00 in0.0 mm 0.00 in0.0 mm
02:30 AM 50.5°F10.3°C 44.6°F7.0°C 80% 4.6 mph N7.4 kmh N 9.2 mph14.8 kmh 30.21 in1023.0 mb - 0.00 in0.0 mm 0.00 in0.0 mm
02:40 AM 50.5°F10.3°C 44.9°F7.2°C 81% 2.3 mph N3.7 kmh N 3.5 mph5.6 kmh 30.22 in1023.4 mb - 0.00 in0.0 mm 0.00 in0.0 mm
02:50 AM 50.5°F10.3°C 44.6°F7.0°C 80% 2.3 mph N3.7 kmh N 3.5 mph5.6 kmh 30.21 in1023.0 mb - 0.00 in0.0 mm 0.00 in0.0 mm
03:00 AM 50.4°F10.2°C 44.8°F7.1°C 81% 2.3 mph N3.7 kmh N 4.6 mph7.4 kmh 30.21 in1023.0 mb - 0.00 in0.0 mm 0.00 in0.0 mm
03:10 AM 50.4°F10.2°C 44.8°F7.1°C 81% 1.2 mph N1.9 kmh N 3.5 mph5.6 kmh 30.21 in1023.0 mb - 0.00 in0.0 mm 0.00 in0.0 mm
03:20 AM 50.4°F10.2°C 44.8°F7.1°C 81% 2.3 mph N3.7 kmh N 3.5 mph5.6 kmh 30.20 in1022.7 mb - 0.00 in0.0 mm 0.00 in0.0 mm
03:30 AM 50.4°F10.2°C 44.8°F7.1°C 81% 3.5 mph N5.6 kmh N 3.5 mph5.6 kmh 30.20 in1022.7 mb - 0.00 in0.0 mm 0.00 in0.0 mm
03:40 AM 50.4°F10.2°C 45.1°F7.3°C 82% 2.3 mph N3.7 kmh N 3.5 mph5.6 kmh 30.19 in1022.4 mb - 0.00 in0.0 mm 0.00 in0.0 mm
03:50 AM 50.4°F10.2°C 44.8°F7.1°C 81% 1.2 mph N1.9 kmh N 2.3 mph3.7 kmh 30.19 in1022.4 mb - 0.00 in0.0 mm 0.00 in0.0 mm
04:00 AM 50.4°F10.2°C 44.8°F7.1°C 81% 1.2 mph N1.9 kmh N 2.3 mph3.7 kmh 30.18 in1022.0 mb - 0.00 in0.0 mm 0.00 in0.0 mm
04:10 AM 50.3°F10.2°C 45.0°F7.2°C 82% 1.2 mph NNE1.9 kmh NNE 2.3 mph3.7 kmh 30.18 in1022.0 mb - 0.00 in0.0 mm 0.00 in0.0 mm
04:20 AM 50.4°F10.2°C 45.1°F7.3°C 82% 1.2 mph NE1.9 kmh NE 3.5 mph5.6 kmh 30.18 in1022.0 mb - 0.00 in0.0 mm 0.00 in0.0 mm
04:30 AM 50.5°F10.3°C 45.3°F7.4°C 82% 2.3 mph N3.7 kmh N 3.5 mph5.6 kmh 30.20 in1022.7 mb - 0.00 in0.0 mm 0.00 in0.0 mm
04:40 AM 50.7°F10.4°C 45.4°F7.4°C 82% 2.3 mph N3.7 kmh N 3.5 mph5.6 kmh 30.19 in1022.4 mb - 0.00 in0.0 mm 0.00 in0.0 mm
04:50 AM 50.9°F10.5°C 45.3°F7.4°C 81% 2.3 mph N3.7 kmh N 3.5 mph5.6 kmh 30.20 in1022.7 mb - 0.00 in0.0 mm 0.00 in0.0 mm
05:00 AM 51.1°F10.6°C 45.5°F7.5°C 81% 2.3 mph N3.7 kmh N 4.6 mph7.4 kmh 30.19 in1022.4 mb - 0.00 in0.0 mm 0.00 in0.0 mm
05:10 AM 51.2°F10.7°C 45.5°F7.5°C 81% 2.3 mph N3.7 kmh N 3.5 mph5.6 kmh 30.19 in1022.4 mb - 0.00 in0.0 mm 0.00 in0.0 mm
05:20 AM 51.2°F10.7°C 45.3°F7.4°C 80% 2.3 mph N3.7 kmh N 3.5 mph5.6 kmh 30.19 in1022.4 mb - 0.00 in0.0 mm 0.00 in0.0 mm
05:30 AM 51.3°F10.7°C 45.4°F7.4°C 80% 4.6 mph N7.4 kmh N 6.9 mph11.1 kmh 30.20 in1022.7 mb - 0.00 in0.0 mm 0.00 in0.0 mm
05:40 AM 51.5°F10.8°C 45.5°F7.5°C 80% 2.3 mph N3.7 kmh N 3.5 mph5.6 kmh 30.20 in1022.7 mb - 0.00 in0.0 mm 0.00 in0.0 mm
05:50 AM 51.5°F10.8°C 45.5°F7.5°C 80% 1.2 mph N1.9 kmh N 3.5 mph5.6 kmh 30.20 in1022.7 mb - 0.00 in0.0 mm 0.00 in0.0 mm
06:00 AM 51.5°F10.8°C 45.5°F7.5°C 80% 2.3 mph N3.7 kmh N 3.5 mph5.6 kmh 30.20 in1022.7 mb - 0.00 in0.0 mm 0.00 in0.0 mm
06:10 AM 51.5°F10.8°C 45.5°F7.5°C 80% 1.2 mph N1.9 kmh N 4.6 mph7.4 kmh 30.20 in1022.7 mb - 0.00 in0.0 mm 0.00 in0.0 mm
06:20 AM 51.5°F10.8°C 45.5°F7.5°C 80% 2.3 mph N3.7 kmh N 3.5 mph5.6 kmh 30.20 in1022.7 mb - 0.00 in0.0 mm 0.00 in0.0 mm
06:30 AM 51.5°F10.8°C 45.5°F7.5°C 80% 2.3 mph N3.7 kmh N 3.5 mph5.6 kmh 30.20 in1022.7 mb - 0.00 in0.0 mm 0.00 in0.0 mm
06:40 AM 51.5°F10.8°C 45.5°F7.5°C 80% Calm Calm -- 30.21 in1023.0 mb - 0.00 in0.0 mm 0.00 in0.0 mm
06:50 AM 51.4°F10.8°C 45.1°F7.3°C 79% 1.2 mph N1.9 kmh N 2.3 mph3.7 kmh 30.20 in1022.7 mb - 0.00 in0.0 mm 0.00 in0.0 mm
07:00 AM 51.2°F10.7°C 45.3°F7.4°C 80% Calm Calm -- 30.20 in1022.7 mb - 0.00 in0.0 mm 0.00 in0.0 mm
07:10 AM 51.2°F10.7°C 45.2°F7.3°C 80% Calm Calm -- 30.20 in1022.7 mb - 0.00 in0.0 mm 0.00 in0.0 mm
07:20 AM 51.2°F10.7°C 45.6°F7.6°C 81% Calm Calm -- 30.19 in1022.4 mb - 0.00 in0.0 mm 0.00 in0.0 mm
07:30 AM 51.3°F10.7°C 45.6°F7.6°C 81% Calm Calm -- 30.19 in1022.4 mb - 0.00 in0.0 mm 0.00 in0.0 mm
07:40 AM 51.4°F10.8°C 45.8°F7.7°C 81% Calm Calm -- 30.19 in1022.4 mb - 0.00 in0.0 mm 0.00 in0.0 mm
07:50 AM 51.7°F10.9°C 46.0°F7.8°C 81% Calm Calm -- 30.18 in1022.0 mb - 0.00 in0.0 mm 0.00 in0.0 mm
08:00 AM 52.0°F11.1°C 46.0°F7.8°C 80% 3.5 mph N5.6 kmh N 8.1 mph13.0 kmh 30.18 in1022.0 mb - 0.00 in0.0 mm 0.00 in0.0 mm
08:10 AM 52.5°F11.4°C 46.5°F8.1°C 80% 3.5 mph NNW5.6 kmh NNW 6.9 mph11.1 kmh 30.18 in1022.0 mb - 0.00 in0.0 mm 0.00 in0.0 mm
08:20 AM 53.4°F11.9°C 46.7°F8.2°C 78% 4.6 mph NNW7.4 kmh NNW 6.9 mph11.1 kmh 30.18 in1022.0 mb - 0.00 in0.0 mm 0.00 in0.0 mm
08:30 AM 54.3°F12.4°C 46.6°F8.1°C 75% 6.9 mph N11.1 kmh N 10.4 mph16.7 kmh 30.18 in1022.0 mb - 0.00 in0.0 mm 0.00 in0.0 mm
08:40 AM 54.6°F12.6°C 46.5°F8.1°C 74% 4.6 mph N7.4 kmh N 8.1 mph13.0 kmh 30.18 in1022.0 mb - 0.00 in0.0 mm 0.00 in0.0 mm
08:50 AM 54.7°F12.6°C 46.6°F8.1°C 74% 4.6 mph N7.4 kmh N 10.4 mph16.7 kmh 30.18 in1022.0 mb - 0.00 in0.0 mm 0.00 in0.0 mm
09:00 AM 55.0°F12.8°C 46.9°F8.3°C 74% 3.5 mph N5.6 kmh N 9.2 mph14.8 kmh 30.17 in1021.7 mb - 0.00 in0.0 mm 0.00 in0.0 mm
09:10 AM 55.2°F12.9°C 46.7°F8.2°C 73% 4.6 mph N7.4 kmh N 8.1 mph13.0 kmh 30.17 in1021.7 mb - 0.00 in0.0 mm 0.00 in0.0 mm
09:20 AM 55.4°F13.0°C 46.9°F8.3°C 73% 5.8 mph N9.3 kmh N 10.4 mph16.7 kmh 30.17 in1021.7 mb - 0.00 in0.0 mm 0.00 in0.0 mm
09:30 AM 55.6°F13.1°C 47.1°F8.4°C 73% 5.8 mph NNW9.3 kmh NNW 8.1 mph13.0 kmh 30.17 in1021.7 mb - 0.00 in0.0 mm 0.00 in0.0 mm
09:40 AM 55.7°F13.2°C 47.2°F8.4°C 73% 4.6 mph NNW7.4 kmh NNW 5.8 mph9.3 kmh 30.17 in1021.7 mb - 0.00 in0.0 mm 0.00 in0.0 mm
09:50 AM 55.9°F13.3°C 47.4°F8.6°C 73% 5.8 mph NW9.3 kmh NW 9.2 mph14.8 kmh 30.17 in1021.7 mb - 0.00 in0.0 mm 0.00 in0.0 mm
10:00 AM 56.1°F13.4°C 47.9°F8.8°C 74% 5.8 mph NNW9.3 kmh NNW 8.1 mph13.0 kmh 30.17 in1021.7 mb - 0.00 in0.0 mm 0.00 in0.0 mm
10:10 AM 56.0°F13.3°C 48.2°F9.0°C 75% 2.3 mph NW3.7 kmh NW 3.5 mph5.6 kmh 30.18 in1022.0 mb - 0.01 in0.3 mm 0.01 in0.3 mm
10:20 AM 55.9°F13.3°C 48.8°F9.3°C 77% 1.2 mph NNW1.9 kmh NNW 3.5 mph5.6 kmh 30.17 in1021.7 mb - 0.01 in0.3 mm 0.01 in0.3 mm
10:30 AM 55.7°F13.2°C 48.9°F9.4°C 78% 3.5 mph NNW5.6 kmh NNW 3.5 mph5.6 kmh 30.17 in1021.7 mb - 0.01 in0.3 mm 0.02 in0.5 mm
10:40 AM 55.6°F13.1°C 49.2°F9.6°C 79% 2.3 mph N3.7 kmh N 3.5 mph5.6 kmh 30.17 in1021.7 mb - 0.01 in0.3 mm 0.03 in0.8 mm
10:50 AM 55.3°F12.9°C 49.2°F9.6°C 80% 5.8 mph NNW9.3 kmh NNW 8.1 mph13.0 kmh 30.16 in1021.3 mb - 0.00 in0.0 mm 0.03 in0.8 mm
11:00 AM 55.2°F12.9°C 49.1°F9.5°C 80% 3.5 mph N5.6 kmh N 6.9 mph11.1 kmh 30.16 in1021.3 mb - 0.01 in0.3 mm 0.04 in1.0 mm
11:10 AM 55.1°F12.8°C 49.4°F9.7°C 81% 6.9 mph N11.1 kmh N 10.4 mph16.7 kmh 30.15 in1021.0 mb - 0.01 in0.3 mm 0.04 in1.0 mm
11:20 AM 55.0°F12.8°C 49.6°F9.8°C 82% 9.2 mph NNW14.8 kmh NNW 11.5 mph18.5 kmh 30.15 in1021.0 mb - 0.00 in0.0 mm 0.04 in1.0 mm
11:30 AM 54.9°F12.7°C 49.8°F9.9°C 83% 8.1 mph NNW13.0 kmh NNW 15.0 mph24.1 kmh 30.14 in1020.7 mb - 0.01 in0.3 mm 0.05 in1.3 mm
11:40 AM 54.9°F12.7°C 50.2°F10.1°C 84% 9.2 mph N14.8 kmh N 15.0 mph24.1 kmh 30.13 in1020.3 mb - 0.01 in0.3 mm 0.06 in1.5 mm
11:50 AM 55.1°F12.8°C 50.7°F10.4°C 85% 8.1 mph NNW13.0 kmh NNW 11.5 mph18.5 kmh 30.12 in1020.0 mb - 0.00 in0.0 mm 0.06 in1.5 mm
12:00 PM 55.5°F13.1°C 51.4°F10.8°C 86% 8.1 mph NNW13.0 kmh NNW 11.5 mph18.5 kmh 30.11 in1019.6 mb - 0.00 in0.0 mm 0.06 in1.5 mm
12:10 PM 55.5°F13.1°C 51.4°F10.8°C 86% 8.1 mph N13.0 kmh N 11.5 mph18.5 kmh 30.11 in1019.6 mb - 0.01 in0.3 mm 0.07 in1.8 mm
12:20 PM 55.4°F13.0°C 51.3°F10.7°C 86% 6.9 mph N11.1 kmh N 9.2 mph14.8 kmh 30.11 in1019.6 mb - 0.00 in0.0 mm 0.07 in1.8 mm
12:30 PM 55.6°F13.1°C 51.5°F10.8°C 86% 8.1 mph NNW13.0 kmh NNW 11.5 mph18.5 kmh 30.10 in1019.3 mb - 0.00 in0.0 mm 0.07 in1.8 mm
12:40 PM 55.7°F13.2°C 51.6°F10.9°C 86% 5.8 mph NNW9.3 kmh NNW 9.2 mph14.8 kmh 30.09 in1019.0 mb - 0.00 in0.0 mm 0.07 in1.8 mm
12:50 PM 55.7°F13.2°C 51.6°F10.9°C 86% 4.6 mph NNW7.4 kmh NNW 10.4 mph16.7 kmh 30.09 in1019.0 mb - 0.00 in0.0 mm 0.07 in1.8 mm
01:00 PM 55.8°F13.2°C 51.4°F10.8°C 85% 6.9 mph NNW11.1 kmh NNW 11.5 mph18.5 kmh 30.08 in1018.6 mb - 0.00 in0.0 mm 0.07 in1.8 mm
01:10 PM 55.7°F13.2°C 51.6°F10.9°C 86% 4.6 mph NNW7.4 kmh NNW 6.9 mph11.1 kmh 30.07 in1018.3 mb - 0.00 in0.0 mm 0.07 in1.8 mm
01:20 PM 55.6°F13.1°C 51.5°F10.8°C 86% 4.6 mph NNW7.4 kmh NNW 6.9 mph11.1 kmh 30.07 in1018.3 mb - 0.00 in0.0 mm 0.07 in1.8 mm
01:30 PM 55.8°F13.2°C 51.7°F10.9°C 86% 4.6 mph NNW7.4 kmh NNW 9.2 mph14.8 kmh 30.07 in1018.3 mb - 0.00 in0.0 mm 0.07 in1.8 mm
01:40 PM 56.7°F13.7°C 51.9°F11.1°C 84% 6.9 mph N11.1 kmh N 9.2 mph14.8 kmh 30.06 in1017.9 mb - 0.00 in0.0 mm 0.07 in1.8 mm
01:50 PM 57.2°F14.0°C 52.1°F11.2°C 83% 4.6 mph NNW7.4 kmh NNW 6.9 mph11.1 kmh 30.06 in1017.9 mb - 0.00 in0.0 mm 0.07 in1.8 mm
02:00 PM 57.6°F14.2°C 52.5°F11.4°C 83% 3.5 mph NNW5.6 kmh NNW 4.6 mph7.4 kmh 30.05 in1017.6 mb - 0.00 in0.0 mm 0.07 in1.8 mm
02:10 PM 57.9°F14.4°C 52.8°F11.6°C 83% 3.5 mph NNW5.6 kmh NNW 5.8 mph9.3 kmh 30.05 in1017.6 mb - 0.00 in0.0 mm 0.07 in1.8 mm
02:20 PM 58.0°F14.4°C 52.9°F11.6°C 83% 3.5 mph NW5.6 kmh NW 3.5 mph5.6 kmh 30.05 in1017.6 mb - 0.01 in0.3 mm 0.08 in2.0 mm
02:30 PM 58.0°F14.4°C 53.2°F11.8°C 84% 2.3 mph NNW3.7 kmh NNW 3.5 mph5.6 kmh 30.05 in1017.6 mb - 0.00 in0.0 mm 0.08 in2.0 mm
02:40 PM 57.9°F14.4°C 52.8°F11.6°C 83% 5.8 mph NW9.3 kmh NW 11.5 mph18.5 kmh 30.04 in1017.3 mb - 0.00 in0.0 mm 0.08 in2.0 mm
02:50 PM 57.8°F14.3°C 52.4°F11.3°C 82% 4.6 mph NW7.4 kmh NW 11.5 mph18.5 kmh 30.04 in1017.3 mb - 0.00 in0.0 mm 0.08 in2.0 mm
03:00 PM 57.8°F14.3°C 52.0°F11.1°C 81% 8.1 mph NW13.0 kmh NW 15.0 mph24.1 kmh 30.04 in1017.3 mb - 0.00 in0.0 mm 0.08 in2.0 mm
03:10 PM 57.8°F14.3°C 51.7°F10.9°C 80% 4.6 mph NNW7.4 kmh NNW 8.1 mph13.0 kmh 30.03 in1016.9 mb - 0.00 in0.0 mm 0.08 in2.0 mm
03:20 PM 57.8°F14.3°C 51.7°F10.9°C 80% 4.6 mph NNW7.4 kmh NNW 9.2 mph14.8 kmh 30.02 in1016.6 mb - 0.00 in0.0 mm 0.08 in2.0 mm
03:30 PM 57.7°F14.3°C 51.6°F10.9°C 80% 8.1 mph NNW13.0 kmh NNW 9.2 mph14.8 kmh 30.01 in1016.3 mb - 0.00 in0.0 mm 0.08 in2.0 mm
03:40 PM 57.5°F14.2°C 51.4°F10.8°C 80% 3.5 mph N5.6 kmh N 3.5 mph5.6 kmh 30.01 in1016.3 mb - 0.00 in0.0 mm 0.08 in2.0 mm
03:50 PM 57.2°F14.0°C 51.1°F10.6°C 80% 5.8 mph NNW9.3 kmh NNW 11.5 mph18.5 kmh 30.01 in1016.3 mb - 0.00 in0.0 mm 0.08 in2.0 mm
04:00 PM 57.0°F13.9°C 50.5°F10.3°C 79% 5.8 mph N9.3 kmh N 10.4 mph16.7 kmh 30.01 in1016.3 mb - 0.00 in0.0 mm 0.08 in2.0 mm
04:10 PM 56.9°F13.8°C 50.8°F10.4°C 80% 3.5 mph NNW5.6 kmh NNW 4.6 mph7.4 kmh 30.01 in1016.3 mb - 0.00 in0.0 mm 0.08 in2.0 mm
04:20 PM 57.0°F13.9°C 50.9°F10.5°C 80% 6.9 mph NW11.1 kmh NW 5.8 mph9.3 kmh 30.01 in1016.3 mb - 0.00 in0.0 mm 0.08 in2.0 mm
04:30 PM 57.1°F13.9°C 51.0°F10.6°C 80% 3.5 mph NW5.6 kmh NW 8.1 mph13.0 kmh 30.01 in1016.3 mb - 0.00 in0.0 mm 0.08 in2.0 mm
04:40 PM 57.3°F14.1°C 51.2°F10.7°C 80% 2.3 mph NNW3.7 kmh NNW 5.8 mph9.3 kmh 30.00 in1015.9 mb - 0.00 in0.0 mm 0.08 in2.0 mm
04:50 PM 57.5°F14.2°C 51.4°F10.8°C 80% 3.5 mph NW5.6 kmh NW 6.9 mph11.1 kmh 30.00 in1015.9 mb - 0.00 in0.0 mm 0.08 in2.0 mm
05:00 PM 57.7°F14.3°C 51.2°F10.7°C 79% 3.5 mph NNW5.6 kmh NNW 6.9 mph11.1 kmh 30.00 in1015.9 mb - 0.00 in0.0 mm 0.08 in2.0 mm
05:10 PM 57.6°F14.2°C 51.1°F10.6°C 79% 5.8 mph NW9.3 kmh NW 9.2 mph14.8 kmh 30.00 in1015.9 mb - 0.00 in0.0 mm 0.08 in2.0 mm
05:20 PM 57.5°F14.2°C 51.0°F10.6°C 79% 3.5 mph NNW5.6 kmh NNW 5.8 mph9.3 kmh 29.99 in1015.6 mb - 0.00 in0.0 mm 0.08 in2.0 mm
05:30 PM 57.4°F14.1°C 51.3°F10.7°C 80% 2.3 mph NW3.7 kmh NW 3.5 mph5.6 kmh 30.00 in1015.9 mb - 0.00 in0.0 mm 0.08 in2.0 mm
05:40 PM 57.3°F14.1°C 51.2°F10.7°C 80% 1.2 mph NNW1.9 kmh NNW 3.5 mph5.6 kmh 30.00 in1015.9 mb - 0.00 in0.0 mm 0.08 in2.0 mm
05:50 PM 57.2°F14.0°C 51.1°F10.6°C 80% 1.2 mph NNW1.9 kmh NNW 2.3 mph3.7 kmh 30.00 in1015.9 mb - 0.00 in0.0 mm 0.08 in2.0 mm
06:00 PM 57.1°F13.9°C 51.3°F10.7°C 81% 2.3 mph NNW3.7 kmh NNW 3.5 mph5.6 kmh 30.00 in1015.9 mb - 0.00 in0.0 mm 0.08 in2.0 mm
06:10 PM 56.9°F13.8°C 51.5°F10.8°C 82% 2.3 mph NNW3.7 kmh NNW 4.6 mph7.4 kmh 30.00 in1015.9 mb - 0.00 in0.0 mm 0.08 in2.0 mm
06:20 PM 56.8°F13.8°C 51.7°F10.9°C 83% 2.3 mph NNW3.7 kmh NNW 3.5 mph5.6 kmh 30.00 in1015.9 mb - 0.00 in0.0 mm 0.08 in2.0 mm
06:30 PM 56.6°F13.7°C 51.5°F10.8°C 83% 3.5 mph NW5.6 kmh NW 5.8 mph9.3 kmh 30.00 in1015.9 mb - 0.00 in0.0 mm 0.08 in2.0 mm
06:40 PM 56.5°F13.6°C 51.7°F10.9°C 84% 4.6 mph NW7.4 kmh NW 8.1 mph13.0 kmh 30.00 in1015.9 mb - 0.00 in0.0 mm 0.08 in2.0 mm
06:50 PM 56.6°F13.7°C 51.8°F11.0°C 84% 2.3 mph NW3.7 kmh NW 4.6 mph7.4 kmh 29.99 in1015.6 mb - 0.00 in0.0 mm 0.08 in2.0 mm
07:00 PM 56.6°F13.7°C 51.8°F11.0°C 84% 3.5 mph NW5.6 kmh NW 6.9 mph11.1 kmh 30.00 in1015.9 mb - 0.00 in0.0 mm 0.08 in2.0 mm
07:10 PM 56.7°F13.7°C 51.9°F11.1°C 84% 3.5 mph NW5.6 kmh NW 9.2 mph14.8 kmh 30.00 in1015.9 mb - 0.00 in0.0 mm 0.08 in2.0 mm
07:20 PM 56.7°F13.7°C 51.9°F11.1°C 84% 2.3 mph NW3.7 kmh NW 3.5 mph5.6 kmh 30.00 in1015.9 mb - 0.00 in0.0 mm 0.08 in2.0 mm
07:30 PM 56.7°F13.7°C 51.9°F11.1°C 84% 2.3 mph NW3.7 kmh NW 3.5 mph5.6 kmh 30.00 in1015.9 mb - 0.00 in0.0 mm 0.08 in2.0 mm
07:40 PM 56.7°F13.7°C 51.9°F11.1°C 84% 2.3 mph NW3.7 kmh NW 3.5 mph5.6 kmh 30.00 in1015.9 mb - 0.01 in0.3 mm 0.09 in2.3 mm
07:50 PM 56.6°F13.7°C 51.8°F11.0°C 84% 2.3 mph NW3.7 kmh NW 3.5 mph5.6 kmh 30.00 in1015.9 mb - 0.00 in0.0 mm 0.09 in2.3 mm
08:00 PM 56.5°F13.6°C 52.0°F11.1°C 85% 2.3 mph NW3.7 kmh NW 6.9 mph11.1 kmh 30.00 in1015.9 mb - 0.00 in0.0 mm 0.09 in2.3 mm
08:10 PM 56.4°F13.6°C 51.9°F11.1°C 85% 3.5 mph NW5.6 kmh NW 5.8 mph9.3 kmh 29.99 in1015.6 mb - 0.00 in0.0 mm 0.09 in2.3 mm
08:20 PM 56.3°F13.5°C 51.6°F10.9°C 84% 3.5 mph NW5.6 kmh NW 4.6 mph7.4 kmh 29.99 in1015.6 mb - 0.00 in0.0 mm 0.09 in2.3 mm
08:30 PM 56.3°F13.5°C 51.8°F11.0°C 85% 2.3 mph NW3.7 kmh NW 3.5 mph5.6 kmh 30.00 in1015.9 mb - 0.00 in0.0 mm 0.09 in2.3 mm
08:40 PM 56.2°F13.4°C 51.7°F10.9°C 85% 2.3 mph NW3.7 kmh NW 3.5 mph5.6 kmh 29.99 in1015.6 mb - 0.00 in0.0 mm 0.09 in2.3 mm
08:50 PM 56.2°F13.4°C 51.7°F10.9°C 85% 2.3 mph NW3.7 kmh NW 3.5 mph5.6 kmh 30.00 in1015.9 mb - 0.00 in0.0 mm 0.09 in2.3 mm
09:00 PM 56.1°F13.4°C 51.7°F10.9°C 85% 3.5 mph NW5.6 kmh NW 4.6 mph7.4 kmh 29.99 in1015.6 mb - 0.00 in0.0 mm 0.09 in2.3 mm
09:10 PM 56.1°F13.4°C 51.7°F10.9°C 85% 4.6 mph NW7.4 kmh NW 10.4 mph16.7 kmh 29.99 in1015.6 mb - 0.00 in0.0 mm 0.09 in2.3 mm
09:20 PM 56.2°F13.4°C 51.7°F10.9°C 85% 3.5 mph NW5.6 kmh NW 5.8 mph9.3 kmh 29.99 in1015.6 mb - 0.00 in0.0 mm 0.09 in2.3 mm
09:30 PM 56.2°F13.4°C 51.7°F10.9°C 85% 2.3 mph NW3.7 kmh NW 5.8 mph9.3 kmh 29.99 in1015.6 mb - 0.00 in0.0 mm 0.09 in2.3 mm
09:40 PM 56.3°F13.5°C 51.8°F11.0°C 85% 3.5 mph WNW5.6 kmh WNW 3.5 mph5.6 kmh 29.99 in1015.6 mb - 0.00 in0.0 mm 0.09 in2.3 mm
09:50 PM 56.4°F13.6°C 51.9°F11.1°C 85% 2.3 mph WNW3.7 kmh WNW 3.5 mph5.6 kmh 29.99 in1015.6 mb - 0.00 in0.0 mm 0.09 in2.3 mm
10:00 PM 56.5°F13.6°C 52.1°F11.2°C 85% 4.6 mph W7.4 kmh W 8.1 mph13.0 kmh 29.99 in1015.6 mb - 0.00 in0.0 mm 0.09 in2.3 mm
10:10 PM 56.8°F13.8°C 52.3°F11.3°C 85% 3.5 mph WNW5.6 kmh WNW 5.8 mph9.3 kmh 29.99 in1015.6 mb - 0.00 in0.0 mm 0.09 in2.3 mm
10:20 PM 56.9°F13.8°C 52.1°F11.2°C 84% 4.6 mph NW7.4 kmh NW 8.1 mph13.0 kmh 29.98 in1015.2 mb - 0.00 in0.0 mm 0.09 in2.3 mm
10:30 PM 57.1°F13.9°C 52.3°F11.3°C 84% 3.5 mph WNW5.6 kmh WNW 4.6 mph7.4 kmh 29.98 in1015.2 mb - 0.00 in0.0 mm 0.09 in2.3 mm
10:40 PM 57.1°F13.9°C 52.3°F11.3°C 84% 2.3 mph W3.7 kmh W 4.6 mph7.4 kmh 29.98 in1015.2 mb - 0.00 in0.0 mm 0.09 in2.3 mm
10:50 PM 57.0°F13.9°C 52.2°F11.2°C 84% 3.5 mph WNW5.6 kmh WNW 5.8 mph9.3 kmh 29.98 in1015.2 mb - 0.00 in0.0 mm 0.09 in2.3 mm
11:00 PM 57.0°F13.9°C 51.9°F11.1°C 83% 2.3 mph W3.7 kmh W 3.5 mph5.6 kmh 29.98 in1015.2 mb - 0.00 in0.0 mm 0.09 in2.3 mm
11:10 PM 56.9°F13.8°C 51.8°F11.0°C 83% 2.3 mph WSW3.7 kmh WSW 3.5 mph5.6 kmh 29.97 in1014.9 mb - 0.00 in0.0 mm 0.09 in2.3 mm
11:20 PM 56.9°F13.8°C 51.8°F11.0°C 83% 2.3 mph WSW3.7 kmh WSW 3.5 mph5.6 kmh 29.97 in1014.9 mb - 0.00 in0.0 mm 0.09 in2.3 mm
11:30 PM 56.8°F13.8°C 51.7°F10.9°C 83% 3.5 mph W5.6 kmh W 4.6 mph7.4 kmh 29.97 in1014.9 mb - 0.00 in0.0 mm 0.09 in2.3 mm
11:40 PM 56.7°F13.7°C 51.6°F10.9°C 83% 2.3 mph WSW3.7 kmh WSW 4.6 mph7.4 kmh 29.97 in1014.9 mb - 0.00 in0.0 mm 0.09 in2.3 mm
11:50 PM 56.6°F13.7°C 51.8°F11.0°C 84% 3.5 mph WSW5.6 kmh WSW 5.8 mph9.3 kmh 29.97 in1014.9 mb - 0.00 in0.0 mm 0.09 in2.3 mm